Time;durP1;ratioP1;P1;durP2;ratioP2;P2;SDS_P1;SDS_P2;PMS_P1;PMS_P2;Temp;Humidity;BMP_temperature;BMP_pressure;BME280_temperature;BME280_humidity;BME280_pressure;Samples;Min_cycle;Max_cycle;Signal;HPM_P1;HPM_P2
2022/05/10 00:00:31;;;;;;;2.00;1.15;;;;;;;;;;4987055;28;20030;-83
2022/05/10 00:02:57;;;;;;;0.47;0.30;;;;;;;;;;4973107;28;20634;-83
2022/05/10 00:05:26;;;;;;;2.53;0.90;;;;;;;;;;4975233;28;20146;-82
2022/05/10 00:07:52;;;;;;;0.95;0.50;;;;;;;;;;4986911;28;20501;-84
2022/05/10 00:10:17;;;;;;;0.70;0.40;;;;;;;;;;4970350;28;20064;-83
2022/05/10 00:12:43;;;;;;;0.43;0.40;;;;;;;;;;4974701;28;20093;-84
2022/05/10 00:15:09;;;;;;;0.85;0.50;;;;;;;;;;4971940;28;20073;-83
2022/05/10 00:17:37;;;;;;;0.57;0.50;;;;;;;;;;4970671;28;20054;-84
2022/05/10 00:20:04;;;;;;;0.95;0.55;;;;;;;;;;4967045;28;20116;-84
2022/05/10 00:22:29;;;;;;;4.27;0.73;;;;;;;;;;4982892;28;20047;-84
2022/05/10 00:24:54;;;;;;;0.57;0.40;;;;;;;;;;4984413;28;20331;-84
2022/05/10 00:27:20;;;;;;;1.20;0.50;;;;;;;;;;4984906;28;20033;-83
2022/05/10 00:29:45;;;;;;;0.90;0.52;;;;;;;;;;4982924;28;20042;-84
2022/05/10 00:32:10;;;;;;;0.98;0.60;;;;;;;;;;4973662;28;20049;-84
2022/05/10 00:34:36;;;;;;;3.10;0.85;;;;;;;;;;4971211;28;20084;-84
2022/05/10 00:37:02;;;;;;;2.17;1.13;;;;;;;;;;4985649;28;20065;-84
2022/05/10 00:39:28;;;;;;;0.28;0.22;;;;;;;;;;4970666;28;20062;-84
2022/05/10 00:42:24;;;;;;;1.00;0.68;;;;;;;;;;4973432;28;20430;-83
2022/05/10 00:45:03;;;;;;;1.60;0.60;;;;;;;;;;4987213;28;20131;-84
2022/05/10 00:48:00;;;;;;;0.95;0.63;;;;;;;;;;4981584;28;20498;-83
2022/05/10 00:50:57;;;;;;;1.00;0.52;;;;;;;;;;4969403;28;20049;-83
2022/05/10 00:53:22;;;;;;;;;;;;;;;;;;4986273;28;20034;-84
2022/05/10 00:56:06;;;;;;;0.37;0.30;;;;;;;;;;5003982;28;19917;-83
2022/05/10 00:58:40;;;;;;;0.80;0.50;;;;;;;;;;4970437;28;20485;-83
2022/05/10 01:01:06;;;;;;;4.97;1.05;;;;;;;;;;4987271;28;20048;-83
2022/05/10 01:03:57;;;;;;;0.90;0.60;;;;;;;;;;4971393;28;20764;-84
2022/05/10 01:06:33;;;;;;;1.15;0.70;;;;;;;;;;4982368;28;20150;-83
2022/05/10 01:09:26;;;;;;;1.05;0.63;;;;;;;;;;4986657;28;20069;-84
2022/05/10 01:11:56;;;;;;;0.80;0.40;;;;;;;;;;4985004;28;20042;-84
2022/05/10 01:14:46;;;;;;;1.30;0.60;;;;;;;;;;4986703;28;20038;-84
2022/05/10 01:17:12;;;;;;;0.85;0.50;;;;;;;;;;4973529;28;20107;-83
2022/05/10 01:19:38;;;;;;;0.90;0.50;;;;;;;;;;4975053;28;20498;-84
2022/05/10 01:22:35;;;;;;;0.70;0.45;;;;;;;;;;4984877;28;20046;-83
2022/05/10 01:25:42;;;;;;;0.82;0.57;;;;;;;;;;4965871;28;20058;-83
2022/05/10 01:28:16;;;;;;;0.95;0.50;;;;;;;;;;4989062;28;20188;-82
2022/05/10 01:30:41;;;;;;;0.60;0.32;;;;;;;;;;5006581;28;20392;-83
2022/05/10 01:33:30;;;;;;;0.70;0.40;;;;;;;;;;4973453;28;21185;-83
2022/05/10 01:36:04;;;;;;;1.00;0.50;;;;;;;;;;4991119;28;20485;-84
2022/05/10 01:38:38;;;;;;;1.17;0.70;;;;;;;;;;4977705;28;20528;-83
2022/05/10 01:41:17;;;;;;;0.57;0.38;;;;;;;;;;4980550;28;20083;-83
2022/05/10 01:44:06;;;;;;;0.57;0.40;;;;;;;;;;4974411;28;20152;-84
2022/05/10 01:46:32;;;;;;;1.15;0.68;;;;;;;;;;4979364;28;20564;-87
2022/05/10 01:49:24;;;;;;;1.08;0.75;;;;;;;;;;4984145;28;20835;-84
2022/05/10 01:51:57;;;;;;;1.77;0.75;;;;;;;;;;4988065;28;20060;-83
2022/05/10 01:54:40;;;;;;;0.68;0.35;;;;;;;;;;4988639;28;20997;-83
2022/05/10 01:57:15;;;;;;;1.35;0.70;;;;;;;;;;4997906;28;20516;-84
2022/05/10 01:59:46;;;;;;;0.68;0.47;;;;;;;;;;4963585;28;20030;-84
2022/05/10 02:02:12;;;;;;;4.15;1.10;;;;;;;;;;4975575;28;20045;-85
2022/05/10 02:04:39;;;;;;;1.67;1.00;;;;;;;;;;4972599;28;20988;-85
2022/05/10 02:07:15;;;;;;;1.83;0.80;;;;;;;;;;4972713;28;20474;-84
2022/05/10 02:09:47;;;;;;;1.60;0.47;;;;;;;;;;4988773;28;20351;-84
2022/05/10 02:12:30;;;;;;;0.80;0.50;;;;;;;;;;4988297;28;20400;-83
2022/05/10 02:15:02;;;;;;;0.82;0.52;;;;;;;;;;4980010;28;20061;-84
2022/05/10 02:17:53;;;;;;;1.27;0.70;;;;;;;;;;4971125;28;20037;-84
2022/05/10 02:20:34;;;;;;;0.90;0.68;;;;;;;;;;4954178;28;20033;-84
2022/05/10 02:23:04;;;;;;;1.50;0.65;;;;;;;;;;4988172;28;20049;-84
2022/05/10 02:25:35;;;;;;;0.88;0.68;;;;;;;;;;4988026;28;20065;-84
2022/05/10 02:28:17;;;;;;;0.70;0.45;;;;;;;;;;4988839;28;20124;-84
2022/05/10 02:30:44;;;;;;;1.27;0.68;;;;;;;;;;5005273;28;20034;-84
2022/05/10 02:33:13;;;;;;;1.25;0.65;;;;;;;;;;4972958;28;20040;-84
2022/05/10 02:35:38;;;;;;;1.38;0.80;;;;;;;;;;4985099;28;20041;-84
2022/05/10 02:38:05;;;;;;;1.63;1.00;;;;;;;;;;5000625;28;20465;-85
2022/05/10 02:40:31;;;;;;;0.73;0.47;;;;;;;;;;4972612;28;20322;-84
2022/05/10 02:42:56;;;;;;;0.98;0.50;;;;;;;;;;4988387;28;20099;-85
2022/05/10 02:45:22;;;;;;;5.03;1.55;;;;;;;;;;4973090;28;20493;-83
2022/05/10 02:47:49;;;;;;;0.98;0.50;;;;;;;;;;4973512;28;20042;-84
2022/05/10 02:50:27;;;;;;;1.63;1.05;;;;;;;;;;4987998;28;20113;-84
2022/05/10 02:52:53;;;;;;;11.65;1.25;;;;;;;;;;4989606;28;20045;-83
2022/05/10 02:55:23;;;;;;;1.58;0.80;;;;;;;;;;4983493;28;20125;-83
2022/05/10 02:57:50;;;;;;;1.23;0.77;;;;;;;;;;4988482;28;20044;-83
2022/05/10 03:00:16;;;;;;;1.40;0.80;;;;;;;;;;4977120;28;20044;-84
2022/05/10 03:02:44;;;;;;;1.30;0.73;;;;;;;;;;4987993;28;20038;-84
2022/05/10 03:05:12;;;;;;;1.17;0.55;;;;;;;;;;4968528;28;20767;-83
2022/05/10 03:07:38;;;;;;;2.47;0.90;;;;;;;;;;4969093;28;20063;-83
2022/05/10 03:10:07;;;;;;;0.73;0.52;;;;;;;;;;4985491;28;20042;-84
2022/05/10 03:12:33;;;;;;;1.52;0.88;;;;;;;;;;4968742;28;20041;-83
2022/05/10 03:14:58;;;;;;;1.42;0.80;;;;;;;;;;4969284;28;20034;-87
2022/05/10 03:17:24;;;;;;;0.80;0.50;;;;;;;;;;4988728;28;20065;-83
2022/05/10 03:19:49;;;;;;;0.93;0.55;;;;;;;;;;4968995;28;20513;-84
2022/05/10 03:22:14;;;;;;;0.80;0.70;;;;;;;;;;4968231;28;20100;-84
2022/05/10 03:24:40;;;;;;;3.03;1.30;;;;;;;;;;4968478;28;20039;-84
2022/05/10 03:27:07;;;;;;;2.30;1.02;;;;;;;;;;4983922;28;20088;-84
2022/05/10 03:29:32;;;;;;;0.95;0.60;;;;;;;;;;4984945;28;20045;-82
2022/05/10 03:31:58;;;;;;;1.08;0.70;;;;;;;;;;4967300;28;20524;-81
2022/05/10 03:37:07;;;;;;;1.25;0.70;;;;;;;;;;4982644;28;20096;-82
2022/05/10 03:39:32;;;;;;;1.15;0.57;;;;;;;;;;4967412;28;20034;-82
2022/05/10 03:41:58;;;;;;;2.00;1.05;;;;;;;;;;4967446;28;20038;-82
2022/05/10 03:44:23;;;;;;;1.73;0.77;;;;;;;;;;4966938;28;20108;-82
2022/05/10 03:46:49;;;;;;;1.23;0.70;;;;;;;;;;4982715;28;20112;-83
2022/05/10 03:49:14;;;;;;;1.23;0.70;;;;;;;;;;4968270;28;20099;-83
2022/05/10 03:51:40;;;;;;;0.60;0.40;;;;;;;;;;4983286;28;20042;-83
2022/05/10 03:54:05;;;;;;;0.93;0.50;;;;;;;;;;4968005;28;20129;-83
2022/05/10 03:56:31;;;;;;;1.15;0.60;;;;;;;;;;4967158;28;20046;-83
2022/05/10 03:58:56;;;;;;;0.98;0.65;;;;;;;;;;4968165;28;20092;-83
2022/05/10 04:01:22;;;;;;;4.25;1.00;;;;;;;;;;4967526;28;20038;-82
2022/05/10 04:03:48;;;;;;;1.17;0.88;;;;;;;;;;4983993;28;20049;-82
2022/05/10 04:06:13;;;;;;;0.90;0.40;;;;;;;;;;4966757;28;20030;-82
2022/05/10 04:08:39;;;;;;;0.88;0.60;;;;;;;;;;4967088;28;20092;-82
2022/05/10 04:11:06;;;;;;;2.15;1.08;;;;;;;;;;4967195;28;20041;-82
2022/05/10 04:13:32;;;;;;;1.65;0.80;;;;;;;;;;4982916;28;20042;-83
2022/05/10 04:15:58;;;;;;;1.67;0.50;;;;;;;;;;4982116;28;20498;-82
2022/05/10 04:18:24;;;;;;;1.45;0.88;;;;;;;;;;4979023;28;20042;-82
2022/05/10 04:20:52;;;;;;;1.15;0.60;;;;;;;;;;4966027;28;20133;-81
2022/05/10 04:23:17;;;;;;;1.38;0.60;;;;;;;;;;4967777;28;20125;-82
2022/05/10 04:25:43;;;;;;;1.42;0.57;;;;;;;;;;4966715;28;20129;-82
2022/05/10 04:28:09;;;;;;;0.50;0.40;;;;;;;;;;4983304;28;20047;-82
2022/05/10 04:30:34;;;;;;;1.98;1.00;;;;;;;;;;4966413;28;20045;-85
2022/05/10 04:32:59;;;;;;;1.55;0.90;;;;;;;;;;4971968;28;20166;-84
2022/05/10 04:35:24;;;;;;;5.60;1.75;;;;;;;;;;4967941;28;20043;-85
2022/05/10 04:37:53;;;;;;;1.42;0.70;;;;;;;;;;4967649;28;20042;-84
2022/05/10 04:43:10;;;;;;;0.52;0.38;;;;;;;;;;4961091;28;20041;-84
2022/05/10 04:45:35;;;;;;;1.08;0.68;;;;;;;;;;4983496;28;20046;-86
2022/05/10 04:48:00;;;;;;;1.45;0.90;;;;;;;;;;4967081;28;20429;-85
2022/05/10 04:50:26;;;;;;;1.63;0.90;;;;;;;;;;4968427;28;20030;-85
2022/05/10 04:52:51;;;;;;;2.20;0.90;;;;;;;;;;4971471;28;20046;-86
2022/05/10 04:55:16;;;;;;;1.05;0.68;;;;;;;;;;4971718;28;20109;-87
2022/05/10 04:57:42;;;;;;;1.33;0.65;;;;;;;;;;4971306;28;20065;-85
2022/05/10 05:00:10;;;;;;;1.55;0.73;;;;;;;;;;4982395;28;20066;-85
2022/05/10 05:02:36;;;;;;;0.70;0.50;;;;;;;;;;4970916;28;20134;-85
2022/05/10 05:05:04;;;;;;;5.38;1.10;;;;;;;;;;4981171;28;20140;-86
2022/05/10 05:07:29;;;;;;;0.90;0.57;;;;;;;;;;4986412;28;20145;-86
2022/05/10 05:09:55;;;;;;;1.02;0.60;;;;;;;;;;4970907;28;20121;-80
2022/05/10 05:12:21;;;;;;;2.97;0.63;;;;;;;;;;4984799;28;20513;-82
2022/05/10 05:14:47;;;;;;;1.13;0.70;;;;;;;;;;4975056;28;20030;-81
2022/05/10 05:17:12;;;;;;;0.90;0.60;;;;;;;;;;4982281;28;20057;-80
2022/05/10 05:19:37;;;;;;;2.08;0.98;;;;;;;;;;4985676;28;20736;-82
2022/05/10 05:22:03;;;;;;;1.60;0.80;;;;;;;;;;4984254;28;20511;-86
2022/05/10 05:24:28;;;;;;;2.40;0.73;;;;;;;;;;4974436;28;20037;-86
2022/05/10 05:26:54;;;;;;;1.40;0.82;;;;;;;;;;4969611;28;20046;-83
2022/05/10 05:29:19;;;;;;;0.90;0.50;;;;;;;;;;4969716;28;20038;-83
2022/05/10 05:31:45;;;;;;;0.77;0.43;;;;;;;;;;4984619;28;20434;-83
2022/05/10 05:34:10;;;;;;;0.60;0.38;;;;;;;;;;4985360;28;20159;-84
2022/05/10 05:36:36;;;;;;;1.55;0.85;;;;;;;;;;4985560;28;20058;-84
2022/05/10 05:39:02;;;;;;;0.98;0.50;;;;;;;;;;4986901;28;20034;-80
2022/05/10 05:41:27;;;;;;;6.97;1.13;;;;;;;;;;4985073;28;20117;-80
2022/05/10 05:43:52;;;;;;;1.33;0.70;;;;;;;;;;4986173;28;20121;-80
2022/05/10 05:46:17;;;;;;;1.15;0.68;;;;;;;;;;4985193;28;20039;-80
2022/05/10 05:48:43;;;;;;;2.15;0.75;;;;;;;;;;4986362;28;20058;-80
2022/05/10 05:51:08;;;;;;;0.77;0.50;;;;;;;;;;4971224;28;20042;-78
2022/05/10 05:53:34;;;;;;;1.42;0.80;;;;;;;;;;4987524;28;20370;-78
2022/05/10 05:56:11;;;;;;;4.93;0.88;;;;;;;;;;4985168;28;20281;-78
2022/05/10 05:58:38;;;;;;;0.88;0.52;;;;;;;;;;4971455;28;20089;-79
2022/05/10 06:01:11;;;;;;;4.90;1.65;;;;;;;;;;4980462;28;20065;-79
2022/05/10 06:03:36;;;;;;;0.47;0.35;;;;;;;;;;4966356;28;20056;-79
2022/05/10 06:06:01;;;;;;;1.92;0.85;;;;;;;;;;4987980;28;20428;-79
2022/05/10 06:08:27;;;;;;;0.50;0.30;;;;;;;;;;4990520;28;20057;-79
2022/05/10 06:10:52;;;;;;;0.77;0.50;;;;;;;;;;4988696;28;20556;-79
2022/05/10 06:13:22;;;;;;;1.15;0.80;;;;;;;;;;4974913;28;20053;-78
2022/05/10 06:15:49;;;;;;;1.10;0.50;;;;;;;;;;4989223;28;20033;-79
2022/05/10 06:18:15;;;;;;;1.85;0.80;;;;;;;;;;4974189;28;20144;-79
2022/05/10 06:20:40;;;;;;;1.67;0.82;;;;;;;;;;4988982;28;20101;-80
2022/05/10 06:23:06;;;;;;;1.65;0.88;;;;;;;;;;4976890;28;20120;-78
2022/05/10 06:25:32;;;;;;;2.63;1.17;;;;;;;;;;4974555;28;20056;-80
2022/05/10 06:27:58;;;;;;;0.80;0.50;;;;;;;;;;4988097;28;20111;-80
2022/05/10 06:30:24;;;;;;;2.05;0.63;;;;;;;;;;4988996;28;20540;-80
2022/05/10 06:32:50;;;;;;;1.95;0.75;;;;;;;;;;4978532;28;20042;-80
2022/05/10 06:35:17;;;;;;;1.10;0.50;;;;;;;;;;4977210;28;20164;-80
2022/05/10 06:40:26;;;;;;;1.02;0.68;;;;;;;;;;4991695;28;20122;-79
2022/05/10 06:42:51;;;;;;;1.48;0.70;;;;;;;;;;4973051;28;20124;-79
2022/05/10 06:45:18;;;;;;;0.93;0.57;;;;;;;;;;4989528;28;20137;-80
2022/05/10 06:47:47;;;;;;;1.20;0.60;;;;;;;;;;4986231;28;20540;-80
2022/05/10 06:50:15;;;;;;;2.15;0.85;;;;;;;;;;4972804;28;20030;-80
2022/05/10 06:52:41;;;;;;;2.00;0.98;;;;;;;;;;4988488;28;20072;-80
2022/05/10 06:55:10;;;;;;;0.95;0.40;;;;;;;;;;4979298;28;20053;-79
2022/05/10 06:57:35;;;;;;;3.53;0.88;;;;;;;;;;4978527;28;20489;-79
2022/05/10 07:00:01;;;;;;;0.82;0.60;;;;;;;;;;4974039;28;20048;-80
2022/05/10 07:02:26;;;;;;;1.90;0.68;;;;;;;;;;4987632;28;20037;-80
2022/05/10 07:04:52;;;;;;;1.55;0.90;;;;;;;;;;4972094;28;20152;-79
2022/05/10 07:07:17;;;;;;;0.77;0.60;;;;;;;;;;4973788;28;20026;-79
2022/05/10 07:09:44;;;;;;;1.08;0.47;;;;;;;;;;4974552;28;20096;-79
2022/05/10 07:12:09;;;;;;;2.70;1.23;;;;;;;;;;4978962;28;20128;-79
2022/05/10 07:14:35;;;;;;;0.63;0.40;;;;;;;;;;4974442;28;20153;-80
2022/05/10 07:17:00;;;;;;;0.82;0.32;;;;;;;;;;4976188;28;20061;-79
2022/05/10 07:19:25;;;;;;;0.70;0.38;;;;;;;;;;4973552;28;20489;-80
2022/05/10 07:21:50;;;;;;;1.00;0.50;;;;;;;;;;4987332;28;20101;-79
2022/05/10 07:24:19;;;;;;;13.23;0.88;;;;;;;;;;4989678;28;20040;-80
2022/05/10 07:26:47;;;;;;;1.70;0.60;;;;;;;;;;4987864;28;20045;-79
2022/05/10 07:29:14;;;;;;;1.85;0.75;;;;;;;;;;4987651;28;20367;-80
2022/05/10 07:31:39;;;;;;;3.17;0.73;;;;;;;;;;5000007;28;20113;-80
2022/05/10 07:34:05;;;;;;;4.57;0.65;;;;;;;;;;4972807;28;20153;-80
2022/05/10 07:36:33;;;;;;;0.77;0.40;;;;;;;;;;4971279;28;20489;-80
2022/05/10 07:39:00;;;;;;;3.97;0.47;;;;;;;;;;4974479;28;20037;-80
2022/05/10 07:41:26;;;;;;;0.57;0.30;;;;;;;;;;4970842;28;20042;-80
2022/05/10 07:43:51;;;;;;;1.73;0.75;;;;;;;;;;4966224;28;20044;-80
2022/05/10 07:46:17;;;;;;;2.50;1.02;;;;;;;;;;4987589;28;20144;-80
2022/05/10 07:48:43;;;;;;;1.02;0.40;;;;;;;;;;4974429;28;20112;-80
2022/05/10 07:51:08;;;;;;;0.45;0.30;;;;;;;;;;4972153;28;20555;-80
2022/05/10 07:53:35;;;;;;;1.23;0.73;;;;;;;;;;4987336;28;20041;-80
2022/05/10 07:56:02;;;;;;;0.77;0.35;;;;;;;;;;4974896;28;20113;-80
2022/05/10 07:58:27;;;;;;;0.50;0.30;;;;;;;;;;4971464;28;20397;-80
2022/05/10 08:00:53;;;;;;;2.10;0.77;;;;;;;;;;4971221;28;20038;-80
2022/05/10 08:03:21;;;;;;;0.45;0.30;;;;;;;;;;4975800;28;20033;-80
2022/05/10 08:05:46;;;;;;;0.68;0.30;;;;;;;;;;4987202;28;20042;-79
2022/05/10 08:08:13;;;;;;;0.60;0.30;;;;;;;;;;4966905;28;20044;-79
2022/05/10 08:10:40;;;;;;;5.43;0.55;;;;;;;;;;4970701;28;20033;-80
2022/05/10 08:13:10;;;;;;;1.92;0.77;;;;;;;;;;4984408;28;20038;-80
2022/05/10 08:15:35;;;;;;;1.90;0.60;;;;;;;;;;4986784;28;20030;-80
2022/05/10 08:18:00;;;;;;;1.15;0.32;;;;;;;;;;4978448;28;20073;-80
2022/05/10 08:20:26;;;;;;;0.38;0.13;;;;;;;;;;4971191;28;20100;-79
2022/05/10 08:22:51;;;;;;;0.82;0.43;;;;;;;;;;4971929;28;20412;-79
2022/05/10 08:25:16;;;;;;;2.10;0.93;;;;;;;;;;4987646;28;20042;-80
2022/05/10 08:27:41;;;;;;;7.05;1.02;;;;;;;;;;4975272;28;20045;-77
2022/05/10 08:30:07;;;;;;;0.70;0.40;;;;;;;;;;4975956;28;20425;-77
2022/05/10 08:32:33;;;;;;;2.80;0.60;;;;;;;;;;5003347;28;20041;-78
2022/05/10 08:34:58;;;;;;;0.63;0.38;;;;;;;;;;4987913;28;20038;-77
2022/05/10 08:37:24;;;;;;;0.43;0.20;;;;;;;;;;5002901;28;20030;-78
2022/05/10 08:39:49;;;;;;;1.42;0.40;;;;;;;;;;4970594;28;20427;-77
2022/05/10 08:42:25;;;;;;;0.82;0.47;;;;;;;;;;4987360;28;20089;-77
2022/05/10 08:44:56;;;;;;;1.75;0.77;;;;;;;;;;4987268;28;20128;-77
2022/05/10 08:47:23;;;;;;;0.60;0.30;;;;;;;;;;4986402;28;20037;-77
2022/05/10 08:49:51;;;;;;;1.10;0.50;;;;;;;;;;4972689;28;20792;-77
2022/05/10 08:52:17;;;;;;;0.80;0.40;;;;;;;;;;4986668;28;20042;-78
2022/05/10 08:54:43;;;;;;;0.98;0.47;;;;;;;;;;4988043;28;20049;-77
2022/05/10 08:57:11;;;;;;;0.82;0.47;;;;;;;;;;4970425;28;20519;-77
2022/05/10 08:59:54;;;;;;;0.82;0.50;;;;;;;;;;4998662;28;20509;-78
2022/05/10 09:02:35;;;;;;;0.65;0.30;;;;;;;;;;5003425;28;20037;-78
2022/05/10 09:05:05;;;;;;;2.20;0.75;;;;;;;;;;5003474;28;20080;-78
2022/05/10 09:07:52;;;;;;;2.75;0.75;;;;;;;;;;4986274;28;20030;-79
2022/05/10 09:10:25;;;;;;;0.95;0.40;;;;;;;;;;4987074;28;20042;-79
2022/05/10 09:13:01;;;;;;;0.30;0.10;;;;;;;;;;4967671;28;20100;-79
2022/05/10 09:15:29;;;;;;;0.93;0.45;;;;;;;;;;4988489;28;20037;-79
2022/05/10 09:17:56;;;;;;;0.60;0.30;;;;;;;;;;4985762;28;20042;-79
2022/05/10 09:20:21;;;;;;;1.55;0.52;;;;;;;;;;4987766;28;20111;-78
2022/05/10 09:22:59;;;;;;;0.32;0.20;;;;;;;;;;4972118;28;20085;-78
2022/05/10 09:25:32;;;;;;;0.35;0.15;;;;;;;;;;5003003;28;20136;-79
2022/05/10 09:27:59;;;;;;;0.50;0.30;;;;;;;;;;4982708;28;20587;-79
2022/05/10 09:30:29;;;;;;;0.65;0.30;;;;;;;;;;4983983;28;20037;-79
2022/05/10 09:35:59;;;;;;;0.77;0.30;;;;;;;;;;5003328;28;20049;-77
2022/05/10 09:38:25;;;;;;;0.40;0.20;;;;;;;;;;4990705;28;20045;-79
2022/05/10 09:40:51;;;;;;;1.53;0.57;;;;;;;;;;4986764;28;20037;-78
2022/05/10 09:43:26;;;;;;;0.95;0.35;;;;;;;;;;4974331;28;20041;-78
2022/05/10 09:46:10;;;;;;;1.05;0.40;;;;;;;;;;4977756;28;20184;-78
2022/05/10 09:48:37;;;;;;;0.80;0.30;;;;;;;;;;5005884;28;20041;-79
2022/05/10 09:51:28;;;;;;;;;;;;;;;;;;4990217;28;20069;-78
2022/05/10 09:54:03;;;;;;;1.75;0.40;;;;;;;;;;5002654;28;19968;-77
2022/05/10 09:56:40;;;;;;;0.73;0.25;;;;;;;;;;4988283;28;20030;-77
2022/05/10 09:59:24;;;;;;;0.32;0.17;;;;;;;;;;4989950;28;20584;-78
2022/05/10 10:01:56;;;;;;;0.43;0.20;;;;;;;;;;5006600;28;20045;-78
2022/05/10 10:04:37;;;;;;;1.35;0.50;;;;;;;;;;4966733;28;20519;-78
2022/05/10 10:07:20;;;;;;;0.95;0.35;;;;;;;;;;4989445;28;20042;-79
2022/05/10 10:09:51;;;;;;;1.38;0.45;;;;;;;;;;4990113;28;20049;-78
2022/05/10 10:12:41;;;;;;;1.77;0.77;;;;;;;;;;4972619;28;20029;-79
2022/05/10 10:15:25;;;;;;;1.30;0.47;;;;;;;;;;4989210;28;20034;-79
2022/05/10 10:17:58;;;;;;;0.75;0.25;;;;;;;;;;4973088;28;20096;-78
2022/05/10 10:20:39;;;;;;;3.03;0.68;;;;;;;;;;5007134;28;20056;-78
2022/05/10 10:23:25;;;;;;;0.50;0.30;;;;;;;;;;5007101;28;20062;-77
2022/05/10 10:25:52;;;;;;;0.80;0.30;;;;;;;;;;4971999;28;20084;-78
2022/05/10 10:28:21;;;;;;;0.60;0.30;;;;;;;;;;4977903;28;20033;-78
2022/05/10 10:30:59;;;;;;;0.70;0.30;;;;;;;;;;5005387;28;20053;-78
2022/05/10 10:33:29;;;;;;;0.38;0.10;;;;;;;;;;4971848;28;20034;-78
2022/05/10 10:36:32;;;;;;;0.47;0.10;;;;;;;;;;4988042;28;20045;-77
2022/05/10 10:39:18;;;;;;;0.63;0.28;;;;;;;;;;4944041;28;20058;-79
2022/05/10 10:41:54;;;;;;;1.10;0.28;;;;;;;;;;5005265;28;20042;-78
2022/05/10 10:44:24;;;;;;;1.38;0.47;;;;;;;;;;4983253;28;20099;-78
2022/05/10 10:47:15;;;;;;;0.80;0.40;;;;;;;;;;4989226;28;20053;-77
2022/05/10 10:50:11;;;;;;;0.47;0.20;;;;;;;;;;4983560;28;20553;-78
2022/05/10 10:52:37;;;;;;;0.20;0.10;;;;;;;;;;4980325;28;20111;-77
2022/05/10 10:55:05;;;;;;;0.93;0.33;;;;;;;;;;4988273;28;20030;-78
2022/05/10 10:58:03;;;;;;;0.52;0.30;;;;;;;;;;4980576;28;20066;-79
2022/05/10 11:00:42;;;;;;;1.35;0.20;;;;;;;;;;4965424;28;20410;-78
2022/05/10 11:03:14;;;;;;;0.77;0.32;;;;;;;;;;4986886;28;20034;-80
2022/05/10 11:06:04;;;;;;;0.40;0.20;;;;;;;;;;4991782;28;20065;-77
2022/05/10 11:09:07;;;;;;;1.65;0.38;;;;;;;;;;4981541;28;20038;-77
2022/05/10 11:11:57;;;;;;;2.88;0.40;;;;;;;;;;4981539;28;20042;-78
2022/05/10 11:14:34;;;;;;;0.95;0.35;;;;;;;;;;4987984;28;20061;-78
2022/05/10 11:17:08;;;;;;;0.77;0.40;;;;;;;;;;5004090;28;20709;-78
2022/05/10 11:19:48;;;;;;;0.47;0.20;;;;;;;;;;5004285;28;20034;-78
2022/05/10 11:22:13;;;;;;;0.77;0.28;;;;;;;;;;5003697;28;20520;-78
2022/05/10 11:24:38;;;;;;;1.20;0.37;;;;;;;;;;4988617;28;20035;-78
2022/05/10 11:27:21;;;;;;;3.30;0.70;;;;;;;;;;4993540;28;20041;-78
2022/05/10 11:30:05;;;;;;;0.30;0.10;;;;;;;;;;4997839;28;20093;-78
2022/05/10 11:32:33;;;;;;;0.52;0.20;;;;;;;;;;5004292;28;20045;-78
2022/05/10 11:35:36;;;;;;;1.15;0.28;;;;;;;;;;4988647;28;20034;-78
2022/05/10 11:38:03;;;;;;;0.70;0.22;;;;;;;;;;4981814;28;20042;-77
2022/05/10 11:41:03;;;;;;;1.33;0.38;;;;;;;;;;4974916;28;20041;-78
2022/05/10 11:43:37;;;;;;;0.70;0.22;;;;;;;;;;4986563;28;20030;-79
2022/05/10 11:46:23;;;;;;;0.90;0.40;;;;;;;;;;4970296;28;20049;-78
2022/05/10 11:49:01;;;;;;;0.63;0.30;;;;;;;;;;5003615;28;20038;-78
2022/05/10 11:51:38;;;;;;;1.15;0.55;;;;;;;;;;5003855;28;20076;-79
2022/05/10 11:54:38;;;;;;;1.02;0.40;;;;;;;;;;4976265;28;20656;-79
2022/05/10 11:57:04;;;;;;;0.88;0.40;;;;;;;;;;5001991;28;20037;-77
2022/05/10 11:59:32;;;;;;;1.00;0.40;;;;;;;;;;4970019;28;20072;-76
2022/05/10 12:01:59;;;;;;;0.47;0.20;;;;;;;;;;4986473;28;20519;-77
2022/05/10 12:04:36;;;;;;;0.35;0.20;;;;;;;;;;4979925;28;20038;-78
2022/05/10 12:07:28;;;;;;;0.50;0.20;;;;;;;;;;4999692;28;20042;-79
2022/05/10 12:10:06;;;;;;;0.68;0.40;;;;;;;;;;4966924;28;20581;-78
2022/05/10 12:12:32;;;;;;;0.30;0.20;;;;;;;;;;4983775;28;20061;-78
2022/05/10 12:24:02;;;;;;;2.28;0.88;;;;;;;;;;4982162;28;20045;-78
2022/05/10 12:26:48;;;;;;;0.30;0.20;;;;;;;;;;4986873;28;20042;-78
2022/05/10 12:29:55;;;;;;;0.70;0.32;;;;;;;;;;4967409;28;20034;-79
2022/05/10 12:32:38;;;;;;;1.50;0.60;;;;;;;;;;4981916;28;20045;-79
2022/05/10 12:35:30;;;;;;;2.20;0.70;;;;;;;;;;4984589;28;20085;-78
2022/05/10 12:37:59;;;;;;;0.98;0.30;;;;;;;;;;4984593;28;20042;-78
2022/05/10 12:40:31;;;;;;;0.40;0.13;;;;;;;;;;4983695;28;20046;-78
2022/05/10 12:43:21;;;;;;;3.50;0.82;;;;;;;;;;4967508;28;20042;-78
2022/05/10 12:46:09;;;;;;;1.05;0.40;;;;;;;;;;4966833;28;20053;-77
2022/05/10 12:49:07;;;;;;;0.95;0.47;;;;;;;;;;4984854;28;20042;-77
2022/05/10 12:51:44;;;;;;;3.78;0.90;;;;;;;;;;4973462;28;20057;-76
2022/05/10 12:54:15;;;;;;;1.25;0.68;;;;;;;;;;4992868;28;20152;-78
2022/05/10 12:56:40;;;;;;;0.70;0.40;;;;;;;;;;4979045;28;20046;-79
2022/05/10 12:59:24;;;;;;;1.27;0.60;;;;;;;;;;4983642;28;20050;-78
2022/05/10 13:01:50;;;;;;;0.65;0.30;;;;;;;;;;4982079;28;20525;-76
2022/05/10 13:04:20;;;;;;;0.77;0.40;;;;;;;;;;4983554;28;20080;-78
2022/05/10 13:07:12;;;;;;;0.90;0.40;;;;;;;;;;4966291;28;20047;-76
2022/05/10 13:09:54;;;;;;;1.08;0.47;;;;;;;;;;4982650;28;20045;-77
2022/05/10 13:12:26;;;;;;;3.90;0.73;;;;;;;;;;4985607;28;20399;-78
2022/05/10 13:14:55;;;;;;;0.85;0.35;;;;;;;;;;4986407;28;20034;-78
2022/05/10 13:17:47;;;;;;;1.15;0.60;;;;;;;;;;4970110;28;20554;-78
2022/05/10 13:20:15;;;;;;;2.25;0.80;;;;;;;;;;4983898;28;20038;-78
2022/05/10 13:22:48;;;;;;;0.30;0.20;;;;;;;;;;4984269;28;20541;-76
2022/05/10 13:25:14;;;;;;;0.73;0.38;;;;;;;;;;4995225;28;20106;-78
2022/05/10 13:27:42;;;;;;;1.42;0.75;;;;;;;;;;4986155;28;20134;-78
2022/05/10 13:30:15;;;;;;;0.73;0.50;;;;;;;;;;4987163;28;20262;-77
2022/05/10 13:32:50;;;;;;;0.80;0.30;;;;;;;;;;4960057;28;20054;-78
2022/05/10 13:35:27;;;;;;;1.77;0.63;;;;;;;;;;4986728;28;20045;-77
2022/05/10 13:37:58;;;;;;;0.50;0.30;;;;;;;;;;4985819;28;20078;-76
2022/05/10 13:40:28;;;;;;;0.60;0.30;;;;;;;;;;4985986;28;20068;-78
2022/05/10 13:42:55;;;;;;;0.47;0.20;;;;;;;;;;4986173;28;20049;-77
2022/05/10 13:45:23;;;;;;;0.68;0.30;;;;;;;;;;4986538;28;20042;-77
2022/05/10 13:47:52;;;;;;;0.63;0.30;;;;;;;;;;4975652;28;20101;-78
2022/05/10 13:50:23;;;;;;;0.70;0.30;;;;;;;;;;4987317;28;20034;-76
2022/05/10 13:52:56;;;;;;;0.82;0.40;;;;;;;;;;4972067;28;20647;-77
2022/05/10 13:55:25;;;;;;;0.77;0.40;;;;;;;;;;4970712;28;20446;-79
2022/05/10 13:58:00;;;;;;;0.50;0.20;;;;;;;;;;4971187;28;20486;-79
2022/05/10 14:00:33;;;;;;;2.25;0.52;;;;;;;;;;4960606;28;20093;-78
2022/05/10 14:03:00;;;;;;;0.88;0.50;;;;;;;;;;4969529;28;20220;-78
2022/05/10 14:05:29;;;;;;;1.13;0.50;;;;;;;;;;4970591;28;20502;-79
2022/05/10 14:08:01;;;;;;;1.08;0.47;;;;;;;;;;4986412;28;20041;-79
2022/05/10 14:10:30;;;;;;;1.35;0.60;;;;;;;;;;4986530;28;20038;-78
2022/05/10 14:12:58;;;;;;;1.05;0.55;;;;;;;;;;4969959;28;20041;-79
2022/05/10 14:15:36;;;;;;;0.85;0.40;;;;;;;;;;4970485;28;20061;-77
2022/05/10 14:18:08;;;;;;;0.30;0.20;;;;;;;;;;4969904;28;20081;-78
2022/05/10 14:20:35;;;;;;;1.17;0.50;;;;;;;;;;4975881;28;20053;-78
2022/05/10 14:23:05;;;;;;;1.27;0.52;;;;;;;;;;4959257;28;20807;-78
2022/05/10 14:25:34;;;;;;;3.20;0.88;;;;;;;;;;4973820;28;20656;-78
2022/05/10 14:30:44;;;;;;;0.82;0.43;;;;;;;;;;4985472;28;20037;-78
2022/05/10 14:33:21;;;;;;;0.93;0.32;;;;;;;;;;4982134;28;20510;-80
2022/05/10 14:35:51;;;;;;;0.70;0.47;;;;;;;;;;4959562;28;20045;-78
2022/05/10 14:38:23;;;;;;;0.55;0.28;;;;;;;;;;4969844;28;20030;-80
2022/05/10 14:40:49;;;;;;;0.77;0.28;;;;;;;;;;4969578;28;20454;-79
2022/05/10 14:43:36;;;;;;;1.58;0.82;;;;;;;;;;4964902;28;20035;-78
2022/05/10 14:46:21;;;;;;;;;;;;;;;;;;4985619;28;20046;-78
2022/05/10 14:48:57;;;;;;;0.50;0.30;;;;;;;;;;4986165;28;20464;-78
2022/05/10 14:51:33;;;;;;;1.00;0.43;;;;;;;;;;4984781;28;20112;-79
2022/05/10 14:53:58;;;;;;;1.13;0.50;;;;;;;;;;4985453;28;20088;-79
2022/05/10 14:56:29;;;;;;;0.90;0.50;;;;;;;;;;4968157;28;20057;-78
2022/05/10 14:58:54;;;;;;;0.65;0.35;;;;;;;;;;4979314;28;20445;-79
2022/05/10 15:01:31;;;;;;;0.93;0.40;;;;;;;;;;4980092;28;20034;-78
2022/05/10 15:04:08;;;;;;;1.23;0.43;;;;;;;;;;4983992;28;20077;-78
2022/05/10 15:06:34;;;;;;;;;;;;;;;;;;4967561;28;20455;-78
2022/05/10 15:08:59;;;;;;;0.57;0.30;;;;;;;;;;4968778;28;20032;-79
2022/05/10 15:11:24;;;;;;;1.55;0.57;;;;;;;;;;4978026;28;20034;-79
2022/05/10 15:13:50;;;;;;;0.85;0.45;;;;;;;;;;4985102;28;20481;-79
2022/05/10 15:16:15;;;;;;;0.52;0.30;;;;;;;;;;4967574;28;20045;-78
2022/05/10 15:18:59;;;;;;;0.73;0.40;;;;;;;;;;4979848;28;20093;-79
2022/05/10 15:21:36;;;;;;;0.68;0.30;;;;;;;;;;4968923;28;20469;-78
2022/05/10 15:24:05;;;;;;;0.93;0.50;;;;;;;;;;4983871;28;20398;-78
2022/05/10 15:26:37;;;;;;;1.20;0.60;;;;;;;;;;4982202;28;20505;-78
2022/05/10 15:29:03;;;;;;;1.17;0.57;;;;;;;;;;4985290;28;20129;-78
2022/05/10 15:31:29;;;;;;;1.08;0.52;;;;;;;;;;4969215;28;20121;-79